sensor_id;sensor_type;location;lat;lon;timestamp;temperature;humidity
3942;DHT22;1985;48.592;8.850;2023-11-19T00:00:16;8.00;99.90
3942;DHT22;1985;48.592;8.850;2023-11-19T00:02:42;8.00;99.90
3942;DHT22;1985;48.592;8.850;2023-11-19T00:05:08;8.10;99.90
3942;DHT22;1985;48.592;8.850;2023-11-19T00:07:35;8.10;99.90
3942;DHT22;1985;48.592;8.850;2023-11-19T00:10:02;8.10;99.90
3942;DHT22;1985;48.592;8.850;2023-11-19T00:12:29;8.10;99.90
3942;DHT22;1985;48.592;8.850;2023-11-19T00:14:55;8.00;99.90
3942;DHT22;1985;48.592;8.850;2023-11-19T00:17:21;8.00;99.90
3942;DHT22;1985;48.592;8.850;2023-11-19T00:19:46;7.90;99.90
3942;DHT22;1985;48.592;8.850;2023-11-19T00:22:12;8.00;99.90
3942;DHT22;1985;48.592;8.850;2023-11-19T00:24:37;8.20;99.90
3942;DHT22;1985;48.592;8.850;2023-11-19T00:27:03;8.30;99.90
3942;DHT22;1985;48.592;8.850;2023-11-19T00:29:29;8.20;99.90
3942;DHT22;1985;48.592;8.850;2023-11-19T00:31:54;8.30;99.90
3942;DHT22;1985;48.592;8.850;2023-11-19T00:34:20;8.40;99.90
3942;DHT22;1985;48.592;8.850;2023-11-19T00:36:48;8.60;99.90
3942;DHT22;1985;48.592;8.850;2023-11-19T00:39:14;8.60;99.90
3942;DHT22;1985;48.592;8.850;2023-11-19T00:41:40;8.60;99.90
3942;DHT22;1985;48.592;8.850;2023-11-19T00:44:06;8.60;99.90
3942;DHT22;1985;48.592;8.850;2023-11-19T00:46:32;8.70;99.90
3942;DHT22;1985;48.592;8.850;2023-11-19T00:48:58;8.70;99.90
3942;DHT22;1985;48.592;8.850;2023-11-19T00:51:25;8.60;99.90
3942;DHT22;1985;48.592;8.850;2023-11-19T00:53:52;8.50;99.90
3942;DHT22;1985;48.592;8.850;2023-11-19T00:56:18;8.40;99.90
3942;DHT22;1985;48.592;8.850;2023-11-19T00:58:45;8.50;99.90
3942;DHT22;1985;48.592;8.850;2023-11-19T01:01:13;8.60;99.90
3942;DHT22;1985;48.592;8.850;2023-11-19T01:03:39;8.60;99.90
3942;DHT22;1985;48.592;8.850;2023-11-19T01:06:05;8.70;99.90
3942;DHT22;1985;48.592;8.850;2023-11-19T01:08:31;8.80;99.90
3942;DHT22;1985;48.592;8.850;2023-11-19T01:10:56;8.80;99.90
3942;DHT22;1985;48.592;8.850;2023-11-19T01:13:22;8.70;99.90
3942;DHT22;1985;48.592;8.850;2023-11-19T01:15:48;8.80;99.90
3942;DHT22;1985;48.592;8.850;2023-11-19T01:18:13;8.80;99.90
3942;DHT22;1985;48.592;8.850;2023-11-19T01:20:39;8.80;99.90
3942;DHT22;1985;48.592;8.850;2023-11-19T01:23:05;8.80;99.90
3942;DHT22;1985;48.592;8.850;2023-11-19T01:25:30;8.90;99.90
3942;DHT22;1985;48.592;8.850;2023-11-19T01:27:56;8.90;99.90
3942;DHT22;1985;48.592;8.850;2023-11-19T01:30:24;9.00;99.90
3942;DHT22;1985;48.592;8.850;2023-11-19T01:32:51;8.90;99.90
3942;DHT22;1985;48.592;8.850;2023-11-19T01:35:16;8.90;99.90
3942;DHT22;1985;48.592;8.850;2023-11-19T01:37:42;8.80;99.90
3942;DHT22;1985;48.592;8.850;2023-11-19T01:40:08;8.90;99.90
3942;DHT22;1985;48.592;8.850;2023-11-19T01:42:39;8.80;99.90
3942;DHT22;1985;48.592;8.850;2023-11-19T01:45:06;8.80;99.90
3942;DHT22;1985;48.592;8.850;2023-11-19T01:47:33;8.90;99.90
3942;DHT22;1985;48.592;8.850;2023-11-19T01:50:00;9.00;99.90
3942;DHT22;1985;48.592;8.850;2023-11-19T01:52:27;9.00;99.90
3942;DHT22;1985;48.592;8.850;2023-11-19T01:54:53;9.10;99.90
3942;DHT22;1985;48.592;8.850;2023-11-19T01:57:21;9.10;99.90
3942;DHT22;1985;48.592;8.850;2023-11-19T01:59:49;9.00;99.90
3942;DHT22;1985;48.592;8.850;2023-11-19T02:02:16;9.10;99.90
3942;DHT22;1985;48.592;8.850;2023-11-19T02:04:43;9.20;99.90
3942;DHT22;1985;48.592;8.850;2023-11-19T02:07:09;9.30;99.90
3942;DHT22;1985;48.592;8.850;2023-11-19T02:09:34;9.50;99.90
3942;DHT22;1985;48.592;8.850;2023-11-19T02:12:00;9.70;99.90
3942;DHT22;1985;48.592;8.850;2023-11-19T02:14:26;9.70;99.90
3942;DHT22;1985;48.592;8.850;2023-11-19T02:16:52;9.80;99.90
3942;DHT22;1985;48.592;8.850;2023-11-19T02:19:21;9.80;99.90
3942;DHT22;1985;48.592;8.850;2023-11-19T02:21:46;9.90;99.90
3942;DHT22;1985;48.592;8.850;2023-11-19T02:24:14;9.90;99.90
3942;DHT22;1985;48.592;8.850;2023-11-19T02:27:02;10.00;99.90
3942;DHT22;1985;48.592;8.850;2023-11-19T02:29:31;10.00;99.90
3942;DHT22;1985;48.592;8.850;2023-11-19T02:31:56;10.00;99.90
3942;DHT22;1985;48.592;8.850;2023-11-19T02:34:22;10.00;99.90
3942;DHT22;1985;48.592;8.850;2023-11-19T02:36:50;10.10;99.90
3942;DHT22;1985;48.592;8.850;2023-11-19T02:39:15;10.10;99.90
3942;DHT22;1985;48.592;8.850;2023-11-19T02:41:47;10.00;99.90
3942;DHT22;1985;48.592;8.850;2023-11-19T02:44:13;10.10;99.90
3942;DHT22;1985;48.592;8.850;2023-11-19T02:46:39;10.10;99.90
3942;DHT22;1985;48.592;8.850;2023-11-19T02:49:07;10.10;99.90
3942;DHT22;1985;48.592;8.850;2023-11-19T02:51:33;10.20;99.90
3942;DHT22;1985;48.592;8.850;2023-11-19T02:54:00;10.20;99.90
3942;DHT22;1985;48.592;8.850;2023-11-19T02:56:26;10.20;99.90
3942;DHT22;1985;48.592;8.850;2023-11-19T02:58:52;10.20;99.90
3942;DHT22;1985;48.592;8.850;2023-11-19T03:01:27;10.20;99.90
3942;DHT22;1985;48.592;8.850;2023-11-19T03:03:59;10.20;99.90
3942;DHT22;1985;48.592;8.850;2023-11-19T03:06:27;10.20;99.90
3942;DHT22;1985;48.592;8.850;2023-11-19T03:08:55;10.20;99.90
3942;DHT22;1985;48.592;8.850;2023-11-19T03:11:21;10.20;99.90
3942;DHT22;1985;48.592;8.850;2023-11-19T03:13:47;10.30;99.90
3942;DHT22;1985;48.592;8.850;2023-11-19T03:16:13;10.20;99.90
3942;DHT22;1985;48.592;8.850;2023-11-19T03:18:39;10.20;99.90
3942;DHT22;1985;48.592;8.850;2023-11-19T03:21:06;10.30;99.90
3942;DHT22;1985;48.592;8.850;2023-11-19T03:23:33;10.30;99.90
3942;DHT22;1985;48.592;8.850;2023-11-19T03:25:59;10.30;99.90
3942;DHT22;1985;48.592;8.850;2023-11-19T03:28:28;10.40;99.90
3942;DHT22;1985;48.592;8.850;2023-11-19T03:30:54;10.40;99.90
3942;DHT22;1985;48.592;8.850;2023-11-19T03:33:20;10.40;99.90
3942;DHT22;1985;48.592;8.850;2023-11-19T03:35:46;10.40;99.90
3942;DHT22;1985;48.592;8.850;2023-11-19T03:38:12;10.50;99.90
3942;DHT22;1985;48.592;8.850;2023-11-19T03:40:38;10.50;99.90
3942;DHT22;1985;48.592;8.850;2023-11-19T03:43:04;10.40;99.90
3942;DHT22;1985;48.592;8.850;2023-11-19T03:45:30;10.50;99.90
3942;DHT22;1985;48.592;8.850;2023-11-19T03:47:56;10.50;99.90
3942;DHT22;1985;48.592;8.850;2023-11-19T03:50:21;10.50;99.90
3942;DHT22;1985;48.592;8.850;2023-11-19T03:52:48;10.50;99.90
3942;DHT22;1985;48.592;8.850;2023-11-19T03:55:13;10.50;99.90
3942;DHT22;1985;48.592;8.850;2023-11-19T03:57:39;10.40;99.90
3942;DHT22;1985;48.592;8.850;2023-11-19T04:00:05;10.40;99.90
3942;DHT22;1985;48.592;8.850;2023-11-19T04:02:36;10.40;99.90
3942;DHT22;1985;48.592;8.850;2023-11-19T04:05:02;10.40;99.90
3942;DHT22;1985;48.592;8.850;2023-11-19T04:07:29;10.30;99.90
3942;DHT22;1985;48.592;8.850;2023-11-19T04:09:55;10.40;99.90
3942;DHT22;1985;48.592;8.850;2023-11-19T04:12:21;10.40;99.90
3942;DHT22;1985;48.592;8.850;2023-11-19T04:14:47;10.40;99.90
3942;DHT22;1985;48.592;8.850;2023-11-19T04:17:13;10.40;99.90
3942;DHT22;1985;48.592;8.850;2023-11-19T04:19:38;10.30;99.90
3942;DHT22;1985;48.592;8.850;2023-11-19T04:22:09;10.30;99.90
3942;DHT22;1985;48.592;8.850;2023-11-19T04:24:35;10.30;99.90
3942;DHT22;1985;48.592;8.850;2023-11-19T04:27:01;10.40;99.90
3942;DHT22;1985;48.592;8.850;2023-11-19T04:29:27;10.40;99.90
3942;DHT22;1985;48.592;8.850;2023-11-19T04:31:52;10.30;99.90
3942;DHT22;1985;48.592;8.850;2023-11-19T04:34:18;10.40;99.90
3942;DHT22;1985;48.592;8.850;2023-11-19T04:36:44;10.40;99.90
3942;DHT22;1985;48.592;8.850;2023-11-19T04:39:09;10.40;99.90
3942;DHT22;1985;48.592;8.850;2023-11-19T04:41:46;10.40;99.90
3942;DHT22;1985;48.592;8.850;2023-11-19T04:44:13;10.50;99.90
3942;DHT22;1985;48.592;8.850;2023-11-19T04:46:38;10.50;99.90
3942;DHT22;1985;48.592;8.850;2023-11-19T04:49:04;10.50;99.90
3942;DHT22;1985;48.592;8.850;2023-11-19T04:51:30;10.50;99.90
3942;DHT22;1985;48.592;8.850;2023-11-19T04:53:55;10.50;99.90
3942;DHT22;1985;48.592;8.850;2023-11-19T04:56:21;10.50;99.90
3942;DHT22;1985;48.592;8.850;2023-11-19T04:58:48;10.50;99.90
3942;DHT22;1985;48.592;8.850;2023-11-19T05:01:14;10.60;99.90
3942;DHT22;1985;48.592;8.850;2023-11-19T05:03:43;10.50;99.90
3942;DHT22;1985;48.592;8.850;2023-11-19T05:06:09;10.50;99.90
3942;DHT22;1985;48.592;8.850;2023-11-19T05:08:35;10.40;99.90
3942;DHT22;1985;48.592;8.850;2023-11-19T05:11:01;10.40;99.90
3942;DHT22;1985;48.592;8.850;2023-11-19T05:13:27;10.50;99.90
3942;DHT22;1985;48.592;8.850;2023-11-19T05:15:52;10.50;99.90
3942;DHT22;1985;48.592;8.850;2023-11-19T05:18:18;10.50;99.90
3942;DHT22;1985;48.592;8.850;2023-11-19T05:20:45;10.50;99.90
3942;DHT22;1985;48.592;8.850;2023-11-19T05:23:10;10.60;99.90
3942;DHT22;1985;48.592;8.850;2023-11-19T05:25:36;10.50;99.90
3942;DHT22;1985;48.592;8.850;2023-11-19T05:28:02;10.60;99.90
3942;DHT22;1985;48.592;8.850;2023-11-19T05:30:28;10.60;99.90
3942;DHT22;1985;48.592;8.850;2023-11-19T05:32:53;10.60;99.90
3942;DHT22;1985;48.592;8.850;2023-11-19T05:35:19;10.60;99.90
3942;DHT22;1985;48.592;8.850;2023-11-19T05:37:45;10.60;99.90
3942;DHT22;1985;48.592;8.850;2023-11-19T05:40:10;10.70;99.90
3942;DHT22;1985;48.592;8.850;2023-11-19T05:42:43;10.70;99.90
3942;DHT22;1985;48.592;8.850;2023-11-19T05:45:11;10.70;99.90
3942;DHT22;1985;48.592;8.850;2023-11-19T05:47:37;10.60;99.90
3942;DHT22;1985;48.592;8.850;2023-11-19T05:50:02;10.60;99.90
3942;DHT22;1985;48.592;8.850;2023-11-19T05:52:29;10.60;99.90
3942;DHT22;1985;48.592;8.850;2023-11-19T05:55:02;10.60;99.90
3942;DHT22;1985;48.592;8.850;2023-11-19T05:57:35;10.60;99.90
3942;DHT22;1985;48.592;8.850;2023-11-19T06:00:01;10.60;99.90
3942;DHT22;1985;48.592;8.850;2023-11-19T06:02:28;10.60;99.90
3942;DHT22;1985;48.592;8.850;2023-11-19T06:04:53;10.70;99.90
3942;DHT22;1985;48.592;8.850;2023-11-19T06:07:19;10.70;99.90
3942;DHT22;1985;48.592;8.850;2023-11-19T06:09:45;10.70;99.90
3942;DHT22;1985;48.592;8.850;2023-11-19T06:12:11;10.70;99.90
3942;DHT22;1985;48.592;8.850;2023-11-19T06:14:37;10.80;99.90
3942;DHT22;1985;48.592;8.850;2023-11-19T06:17:03;10.80;99.90
3942;DHT22;1985;48.592;8.850;2023-11-19T06:19:30;10.80;99.90
3942;DHT22;1985;48.592;8.850;2023-11-19T06:21:56;10.80;99.90
3942;DHT22;1985;48.592;8.850;2023-11-19T06:24:21;10.80;99.90
3942;DHT22;1985;48.592;8.850;2023-11-19T06:26:47;10.90;99.90
3942;DHT22;1985;48.592;8.850;2023-11-19T06:29:13;11.00;99.90
3942;DHT22;1985;48.592;8.850;2023-11-19T06:31:43;11.10;99.90
3942;DHT22;1985;48.592;8.850;2023-11-19T06:34:09;11.10;99.90
3942;DHT22;1985;48.592;8.850;2023-11-19T06:36:35;11.10;99.90
3942;DHT22;1985;48.592;8.850;2023-11-19T06:39:01;11.10;99.90
3942;DHT22;1985;48.592;8.850;2023-11-19T06:41:27;11.10;99.90
3942;DHT22;1985;48.592;8.850;2023-11-19T06:43:54;11.10;99.90
3942;DHT22;1985;48.592;8.850;2023-11-19T06:46:20;11.10;99.90
3942;DHT22;1985;48.592;8.850;2023-11-19T06:48:46;11.10;99.90
3942;DHT22;1985;48.592;8.850;2023-11-19T06:51:12;11.10;99.90
3942;DHT22;1985;48.592;8.850;2023-11-19T06:53:38;11.00;99.90
3942;DHT22;1985;48.592;8.850;2023-11-19T06:56:06;11.10;99.90
3942;DHT22;1985;48.592;8.850;2023-11-19T06:58:42;11.10;99.90
3942;DHT22;1985;48.592;8.850;2023-11-19T07:01:08;11.10;99.90
3942;DHT22;1985;48.592;8.850;2023-11-19T07:03:35;11.20;99.90
3942;DHT22;1985;48.592;8.850;2023-11-19T07:06:00;11.20;99.90
3942;DHT22;1985;48.592;8.850;2023-11-19T07:08:26;11.20;99.90
3942;DHT22;1985;48.592;8.850;2023-11-19T07:10:52;11.30;99.90
3942;DHT22;1985;48.592;8.850;2023-11-19T07:13:18;11.30;99.90
3942;DHT22;1985;48.592;8.850;2023-11-19T07:15:44;11.30;99.90
3942;DHT22;1985;48.592;8.850;2023-11-19T07:18:10;11.30;99.90
3942;DHT22;1985;48.592;8.850;2023-11-19T07:20:37;11.30;99.90
3942;DHT22;1985;48.592;8.850;2023-11-19T07:23:03;11.40;99.90
3942;DHT22;1985;48.592;8.850;2023-11-19T07:25:29;11.40;99.90
3942;DHT22;1985;48.592;8.850;2023-11-19T07:27:55;11.30;99.90
3942;DHT22;1985;48.592;8.850;2023-11-19T07:30:22;11.20;99.90
3942;DHT22;1985;48.592;8.850;2023-11-19T07:32:47;11.30;99.90
3942;DHT22;1985;48.592;8.850;2023-11-19T07:35:14;11.30;99.90
3942;DHT22;1985;48.592;8.850;2023-11-19T07:37:41;11.20;99.90
3942;DHT22;1985;48.592;8.850;2023-11-19T07:40:08;11.20;99.90
3942;DHT22;1985;48.592;8.850;2023-11-19T07:42:34;11.20;99.90
3942;DHT22;1985;48.592;8.850;2023-11-19T07:44:59;11.10;99.90
3942;DHT22;1985;48.592;8.850;2023-11-19T07:47:25;11.10;99.90
3942;DHT22;1985;48.592;8.850;2023-11-19T07:49:51;11.20;99.90
3942;DHT22;1985;48.592;8.850;2023-11-19T07:52:16;11.20;99.90
3942;DHT22;1985;48.592;8.850;2023-11-19T07:54:42;11.20;99.90
3942;DHT22;1985;48.592;8.850;2023-11-19T07:57:08;11.30;99.90
3942;DHT22;1985;48.592;8.850;2023-11-19T07:59:33;11.20;99.90
3942;DHT22;1985;48.592;8.850;2023-11-19T08:01:59;11.20;99.90
3942;DHT22;1985;48.592;8.850;2023-11-19T08:04:24;11.20;99.90
3942;DHT22;1985;48.592;8.850;2023-11-19T08:06:50;11.30;99.90
3942;DHT22;1985;48.592;8.850;2023-11-19T08:09:16;11.30;99.90
3942;DHT22;1985;48.592;8.850;2023-11-19T08:11:43;11.40;99.90
3942;DHT22;1985;48.592;8.850;2023-11-19T08:14:09;11.50;99.90
3942;DHT22;1985;48.592;8.850;2023-11-19T08:16:35;11.40;99.90
3942;DHT22;1985;48.592;8.850;2023-11-19T08:19:01;11.50;99.90
3942;DHT22;1985;48.592;8.850;2023-11-19T08:21:28;11.50;99.90
3942;DHT22;1985;48.592;8.850;2023-11-19T08:23:54;11.50;99.90
3942;DHT22;1985;48.592;8.850;2023-11-19T08:26:20;11.50;99.90
3942;DHT22;1985;48.592;8.850;2023-11-19T08:28:45;11.60;99.90
3942;DHT22;1985;48.592;8.850;2023-11-19T08:31:11;11.60;99.90
3942;DHT22;1985;48.592;8.850;2023-11-19T08:33:37;11.70;99.90
3942;DHT22;1985;48.592;8.850;2023-11-19T08:36:03;11.70;99.90
3942;DHT22;1985;48.592;8.850;2023-11-19T08:38:29;11.80;99.90
3942;DHT22;1985;48.592;8.850;2023-11-19T08:40:55;11.80;99.90
3942;DHT22;1985;48.592;8.850;2023-11-19T08:43:26;11.80;99.90
3942;DHT22;1985;48.592;8.850;2023-11-19T08:45:51;11.90;99.90
3942;DHT22;1985;48.592;8.850;2023-11-19T08:48:17;11.90;99.90
3942;DHT22;1985;48.592;8.850;2023-11-19T08:50:43;11.90;99.90
3942;DHT22;1985;48.592;8.850;2023-11-19T08:53:08;12.00;99.90
3942;DHT22;1985;48.592;8.850;2023-11-19T08:55:34;12.10;99.90
3942;DHT22;1985;48.592;8.850;2023-11-19T08:58:00;12.30;99.90
3942;DHT22;1985;48.592;8.850;2023-11-19T09:00:26;12.50;99.90
3942;DHT22;1985;48.592;8.850;2023-11-19T09:02:52;12.70;99.90
3942;DHT22;1985;48.592;8.850;2023-11-19T09:05:17;12.80;99.90
3942;DHT22;1985;48.592;8.850;2023-11-19T09:07:43;12.80;99.90
3942;DHT22;1985;48.592;8.850;2023-11-19T09:10:09;12.80;99.90
3942;DHT22;1985;48.592;8.850;2023-11-19T09:12:35;12.80;99.90
3942;DHT22;1985;48.592;8.850;2023-11-19T09:15:01;12.80;99.90
3942;DHT22;1985;48.592;8.850;2023-11-19T09:17:26;12.90;99.90
3942;DHT22;1985;48.592;8.850;2023-11-19T09:19:52;12.90;99.90
3942;DHT22;1985;48.592;8.850;2023-11-19T09:22:18;13.10;99.90
3942;DHT22;1985;48.592;8.850;2023-11-19T09:24:43;13.30;99.90
3942;DHT22;1985;48.592;8.850;2023-11-19T09:27:10;13.20;99.90
3942;DHT22;1985;48.592;8.850;2023-11-19T09:29:36;13.20;99.90
3942;DHT22;1985;48.592;8.850;2023-11-19T09:32:02;13.30;99.90
3942;DHT22;1985;48.592;8.850;2023-11-19T09:34:28;13.40;99.90
3942;DHT22;1985;48.592;8.850;2023-11-19T09:36:53;13.70;99.90
3942;DHT22;1985;48.592;8.850;2023-11-19T09:39:19;13.80;99.90
3942;DHT22;1985;48.592;8.850;2023-11-19T09:41:46;13.80;99.90
3942;DHT22;1985;48.592;8.850;2023-11-19T09:44:12;13.80;99.90
3942;DHT22;1985;48.592;8.850;2023-11-19T09:46:39;13.90;99.90
3942;DHT22;1985;48.592;8.850;2023-11-19T09:49:08;14.00;99.90
3942;DHT22;1985;48.592;8.850;2023-11-19T09:51:36;14.10;99.90
3942;DHT22;1985;48.592;8.850;2023-11-19T09:54:02;14.40;99.90
3942;DHT22;1985;48.592;8.850;2023-11-19T09:56:32;14.40;99.90
3942;DHT22;1985;48.592;8.850;2023-11-19T09:58:59;14.30;99.90
3942;DHT22;1985;48.592;8.850;2023-11-19T10:01:25;14.00;99.90
3942;DHT22;1985;48.592;8.850;2023-11-19T10:03:52;14.20;99.90
3942;DHT22;1985;48.592;8.850;2023-11-19T10:06:20;14.20;99.90
3942;DHT22;1985;48.592;8.850;2023-11-19T10:08:46;14.10;99.90
3942;DHT22;1985;48.592;8.850;2023-11-19T10:11:12;14.20;99.90
3942;DHT22;1985;48.592;8.850;2023-11-19T10:13:38;14.30;99.90
3942;DHT22;1985;48.592;8.850;2023-11-19T10:16:08;14.20;99.90
3942;DHT22;1985;48.592;8.850;2023-11-19T10:18:34;14.20;99.90
3942;DHT22;1985;48.592;8.850;2023-11-19T10:21:06;14.00;99.90
3942;DHT22;1985;48.592;8.850;2023-11-19T10:23:48;14.00;99.90
3942;DHT22;1985;48.592;8.850;2023-11-19T10:26:14;14.10;99.90
3942;DHT22;1985;48.592;8.850;2023-11-19T10:28:40;15.10;99.90
3942;DHT22;1985;48.592;8.850;2023-11-19T10:31:09;15.50;99.90
3942;DHT22;1985;48.592;8.850;2023-11-19T10:33:35;16.30;99.90
3942;DHT22;1985;48.592;8.850;2023-11-19T10:36:01;17.60;99.90
3942;DHT22;1985;48.592;8.850;2023-11-19T10:38:27;18.80;99.90
3942;DHT22;1985;48.592;8.850;2023-11-19T10:40:54;19.40;99.90
3942;DHT22;1985;48.592;8.850;2023-11-19T10:43:21;19.70;99.90
3942;DHT22;1985;48.592;8.850;2023-11-19T10:45:51;19.70;99.90
3942;DHT22;1985;48.592;8.850;2023-11-19T10:48:17;19.10;99.90
3942;DHT22;1985;48.592;8.850;2023-11-19T10:50:44;18.70;99.90
3942;DHT22;1985;48.592;8.850;2023-11-19T10:53:12;18.00;99.90
3942;DHT22;1985;48.592;8.850;2023-11-19T10:55:41;17.50;99.90
3942;DHT22;1985;48.592;8.850;2023-11-19T10:58:10;16.40;99.90
3942;DHT22;1985;48.592;8.850;2023-11-19T11:00:37;16.50;99.90
3942;DHT22;1985;48.592;8.850;2023-11-19T11:03:10;17.50;99.90
3942;DHT22;1985;48.592;8.850;2023-11-19T11:05:38;18.30;99.90
3942;DHT22;1985;48.592;8.850;2023-11-19T11:08:06;18.50;99.90
3942;DHT22;1985;48.592;8.850;2023-11-19T11:10:36;18.60;99.90
3942;DHT22;1985;48.592;8.850;2023-11-19T11:13:05;18.50;99.90
3942;DHT22;1985;48.592;8.850;2023-11-19T11:15:31;17.40;99.90
3942;DHT22;1985;48.592;8.850;2023-11-19T11:18:00;17.50;99.90
3942;DHT22;1985;48.592;8.850;2023-11-19T12:05:59;19.30;99.90
3942;DHT22;1985;48.592;8.850;2023-11-19T12:08:27;19.70;99.90
3942;DHT22;1985;48.592;8.850;2023-11-19T12:10:55;21.50;99.90
3942;DHT22;1985;48.592;8.850;2023-11-19T12:13:27;22.60;99.80
3942;DHT22;1985;48.592;8.850;2023-11-19T12:18:32;22.00;93.20
3942;DHT22;1985;48.592;8.850;2023-11-19T12:21:01;20.90;96.40
3942;DHT22;1985;48.592;8.850;2023-11-19T12:23:30;20.40;97.40
3942;DHT22;1985;48.592;8.850;2023-11-19T12:25:56;20.40;97.70
3942;DHT22;1985;48.592;8.850;2023-11-19T12:28:22;19.70;97.90
3942;DHT22;1985;48.592;8.850;2023-11-19T12:30:49;19.80;98.80
3942;DHT22;1985;48.592;8.850;2023-11-19T12:33:15;19.40;97.90
3942;DHT22;1985;48.592;8.850;2023-11-19T12:35:46;19.20;99.00
3942;DHT22;1985;48.592;8.850;2023-11-19T12:38:23;19.10;99.30
3942;DHT22;1985;48.592;8.850;2023-11-19T12:43:30;18.80;99.90
3942;DHT22;1985;48.592;8.850;2023-11-19T12:45:56;20.50;98.20
3942;DHT22;1985;48.592;8.850;2023-11-19T12:48:21;21.00;95.90
3942;DHT22;1985;48.592;8.850;2023-11-19T12:50:54;20.20;95.40
3942;DHT22;1985;48.592;8.850;2023-11-19T12:53:21;19.40;96.70
3942;DHT22;1985;48.592;8.850;2023-11-19T12:55:48;18.50;98.50
3942;DHT22;1985;48.592;8.850;2023-11-19T12:58:34;17.50;99.90
3942;DHT22;1985;48.592;8.850;2023-11-19T13:01:02;18.70;99.70
3942;DHT22;1985;48.592;8.850;2023-11-19T13:03:33;19.30;98.70
3942;DHT22;1985;48.592;8.850;2023-11-19T13:06:10;19.00;98.20
3942;DHT22;1985;48.592;8.850;2023-11-19T13:08:49;18.40;98.30
3942;DHT22;1985;48.592;8.850;2023-11-19T13:11:31;17.90;98.70
3942;DHT22;1985;48.592;8.850;2023-11-19T13:13:59;17.50;99.60
3942;DHT22;1985;48.592;8.850;2023-11-19T13:16:26;17.80;99.30
3942;DHT22;1985;48.592;8.850;2023-11-19T13:18:52;17.50;99.90
3942;DHT22;1985;48.592;8.850;2023-11-19T13:21:18;17.90;99.90
3942;DHT22;1985;48.592;8.850;2023-11-19T13:23:44;18.50;98.80
3942;DHT22;1985;48.592;8.850;2023-11-19T13:26:10;18.80;96.80
3942;DHT22;1985;48.592;8.850;2023-11-19T13:28:37;18.70;96.90
3942;DHT22;1985;48.592;8.850;2023-11-19T13:31:03;18.80;96.60
3942;DHT22;1985;48.592;8.850;2023-11-19T13:33:29;18.00;96.80
3942;DHT22;1985;48.592;8.850;2023-11-19T13:35:56;17.60;98.00
3942;DHT22;1985;48.592;8.850;2023-11-19T13:38:22;17.20;98.10
3942;DHT22;1985;48.592;8.850;2023-11-19T13:40:51;17.00;98.60
3942;DHT22;1985;48.592;8.850;2023-11-19T13:43:17;16.60;99.40
3942;DHT22;1985;48.592;8.850;2023-11-19T13:45:42;16.60;99.90
3942;DHT22;1985;48.592;8.850;2023-11-19T13:48:08;16.70;99.90
3942;DHT22;1985;48.592;8.850;2023-11-19T13:50:35;16.80;99.90
3942;DHT22;1985;48.592;8.850;2023-11-19T13:53:00;16.40;99.90
3942;DHT22;1985;48.592;8.850;2023-11-19T13:55:26;16.40;99.90
3942;DHT22;1985;48.592;8.850;2023-11-19T13:57:52;16.30;99.90
3942;DHT22;1985;48.592;8.850;2023-11-19T14:00:18;16.10;99.90
3942;DHT22;1985;48.592;8.850;2023-11-19T14:02:48;16.10;99.90
3942;DHT22;1985;48.592;8.850;2023-11-19T14:05:15;16.00;99.90
3942;DHT22;1985;48.592;8.850;2023-11-19T14:07:43;15.70;99.90
3942;DHT22;1985;48.592;8.850;2023-11-19T14:10:10;15.60;99.90
3942;DHT22;1985;48.592;8.850;2023-11-19T14:12:37;15.60;99.90
3942;DHT22;1985;48.592;8.850;2023-11-19T14:15:04;15.50;99.90
3942;DHT22;1985;48.592;8.850;2023-11-19T14:17:32;15.50;99.90
3942;DHT22;1985;48.592;8.850;2023-11-19T14:19:58;15.70;99.90
3942;DHT22;1985;48.592;8.850;2023-11-19T14:22:24;15.70;99.90
3942;DHT22;1985;48.592;8.850;2023-11-19T14:24:50;15.20;99.90
3942;DHT22;1985;48.592;8.850;2023-11-19T14:27:16;14.90;99.90
3942;DHT22;1985;48.592;8.850;2023-11-19T14:29:45;14.70;99.90
3942;DHT22;1985;48.592;8.850;2023-11-19T14:32:11;14.30;99.90
3942;DHT22;1985;48.592;8.850;2023-11-19T14:34:37;14.10;99.90
3942;DHT22;1985;48.592;8.850;2023-11-19T14:37:02;14.00;99.90
3942;DHT22;1985;48.592;8.850;2023-11-19T14:39:28;14.10;99.90
3942;DHT22;1985;48.592;8.850;2023-11-19T14:41:57;14.10;99.90
3942;DHT22;1985;48.592;8.850;2023-11-19T14:44:27;14.00;99.90
3942;DHT22;1985;48.592;8.850;2023-11-19T14:46:52;14.00;99.90
3942;DHT22;1985;48.592;8.850;2023-11-19T14:49:18;14.00;99.90
3942;DHT22;1985;48.592;8.850;2023-11-19T14:51:44;13.90;99.90
3942;DHT22;1985;48.592;8.850;2023-11-19T14:54:09;13.80;99.90
3942;DHT22;1985;48.592;8.850;2023-11-19T14:56:35;13.70;99.90
3942;DHT22;1985;48.592;8.850;2023-11-19T14:59:00;13.60;99.90
3942;DHT22;1985;48.592;8.850;2023-11-19T15:01:26;13.50;99.90
3942;DHT22;1985;48.592;8.850;2023-11-19T15:03:54;13.50;99.90
3942;DHT22;1985;48.592;8.850;2023-11-19T15:06:23;13.40;99.90
3942;DHT22;1985;48.592;8.850;2023-11-19T15:08:50;13.30;99.90
3942;DHT22;1985;48.592;8.850;2023-11-19T15:11:16;13.30;99.90
3942;DHT22;1985;48.592;8.850;2023-11-19T15:13:42;13.30;99.90
3942;DHT22;1985;48.592;8.850;2023-11-19T15:16:08;13.20;99.90
3942;DHT22;1985;48.592;8.850;2023-11-19T15:18:37;13.10;99.90
3942;DHT22;1985;48.592;8.850;2023-11-19T15:21:03;13.00;99.90
3942;DHT22;1985;48.592;8.850;2023-11-19T15:23:29;13.00;99.90
3942;DHT22;1985;48.592;8.850;2023-11-19T15:25:55;12.90;99.90
3942;DHT22;1985;48.592;8.850;2023-11-19T15:28:21;12.80;99.90
3942;DHT22;1985;48.592;8.850;2023-11-19T15:30:47;12.70;99.90
3942;DHT22;1985;48.592;8.850;2023-11-19T15:33:13;12.70;99.90
3942;DHT22;1985;48.592;8.850;2023-11-19T15:35:38;12.80;99.90
3942;DHT22;1985;48.592;8.850;2023-11-19T15:38:06;12.80;99.90
3942;DHT22;1985;48.592;8.850;2023-11-19T15:40:35;12.60;99.90
3942;DHT22;1985;48.592;8.850;2023-11-19T15:43:01;12.50;99.90
3942;DHT22;1985;48.592;8.850;2023-11-19T15:45:27;12.50;99.90
3942;DHT22;1985;48.592;8.850;2023-11-19T15:47:53;12.50;99.90
3942;DHT22;1985;48.592;8.850;2023-11-19T15:50:18;12.50;99.90
3942;DHT22;1985;48.592;8.850;2023-11-19T15:52:44;12.40;99.90
3942;DHT22;1985;48.592;8.850;2023-11-19T15:55:10;12.40;99.90
3942;DHT22;1985;48.592;8.850;2023-11-19T15:57:39;12.50;99.90
3942;DHT22;1985;48.592;8.850;2023-11-19T16:00:05;12.40;99.90
3942;DHT22;1985;48.592;8.850;2023-11-19T16:02:30;12.40;99.90
3942;DHT22;1985;48.592;8.850;2023-11-19T16:04:56;12.40;99.90
3942;DHT22;1985;48.592;8.850;2023-11-19T16:07:22;12.40;99.90
3942;DHT22;1985;48.592;8.850;2023-11-19T16:09:47;12.40;99.90
3942;DHT22;1985;48.592;8.850;2023-11-19T16:12:14;12.40;99.90
3942;DHT22;1985;48.592;8.850;2023-11-19T16:14:39;12.40;99.90
3942;DHT22;1985;48.592;8.850;2023-11-19T16:17:05;12.30;99.90
3942;DHT22;1985;48.592;8.850;2023-11-19T16:19:34;12.20;99.90
3942;DHT22;1985;48.592;8.850;2023-11-19T16:22:00;12.20;99.90
3942;DHT22;1985;48.592;8.850;2023-11-19T16:24:35;12.20;99.90
3942;DHT22;1985;48.592;8.850;2023-11-19T16:27:02;12.20;99.90
3942;DHT22;1985;48.592;8.850;2023-11-19T16:29:27;12.00;99.90
3942;DHT22;1985;48.592;8.850;2023-11-19T16:31:53;12.10;99.90
3942;DHT22;1985;48.592;8.850;2023-11-19T16:34:19;12.00;99.90
3942;DHT22;1985;48.592;8.850;2023-11-19T16:36:45;11.90;99.90
3942;DHT22;1985;48.592;8.850;2023-11-19T16:39:12;11.80;99.90
3942;DHT22;1985;48.592;8.850;2023-11-19T16:41:38;11.80;99.90
3942;DHT22;1985;48.592;8.850;2023-11-19T16:44:05;11.90;99.90
3942;DHT22;1985;48.592;8.850;2023-11-19T16:46:31;11.90;99.90
3942;DHT22;1985;48.592;8.850;2023-11-19T16:48:58;11.90;99.90
3942;DHT22;1985;48.592;8.850;2023-11-19T16:51:24;11.90;99.90